createdAt,value
2018-10-03T00:08:48.394Z,10.51
2018-10-03T00:11:17.933Z,10.49
2018-10-03T00:13:48.979Z,10.46
2018-10-03T00:16:19.888Z,10.41
2018-10-03T00:18:50.012Z,10.30
2018-10-03T00:21:19.623Z,10.22
2018-10-03T00:23:49.383Z,10.24
2018-10-03T00:26:19.296Z,10.27
2018-10-03T00:28:49.097Z,10.26
2018-10-03T00:31:18.603Z,10.22
2018-10-03T00:33:48.621Z,10.19
2018-10-03T00:36:18.179Z,10.14
2018-10-03T00:38:48.049Z,10.12
2018-10-03T00:41:19.494Z,10.12
2018-10-03T00:43:49.664Z,10.24
2018-10-03T00:46:19.523Z,10.41
2018-10-03T00:48:49.377Z,10.46
2018-10-03T00:51:19.453Z,10.48
2018-10-03T00:53:49.184Z,10.54
2018-10-03T00:56:18.795Z,10.53
2018-10-03T00:58:48.692Z,10.53
2018-10-03T01:01:19.810Z,10.57
2018-10-03T01:04:00.975Z,10.70
2018-10-03T01:06:32.497Z,10.72
2018-10-03T01:09:02.741Z,10.71
2018-10-03T01:11:44.742Z,10.73
2018-10-03T01:14:16.402Z,10.72
2018-10-03T01:16:46.803Z,10.68
2018-10-03T01:19:23.801Z,10.65
2018-10-03T01:21:54.882Z,10.75
2018-10-03T01:24:25.306Z,10.72
2018-10-03T01:27:00.394Z,10.74
2018-10-03T01:29:30.776Z,10.74
2018-10-03T01:32:04.888Z,10.73
2018-10-03T01:34:35.701Z,10.78
2018-10-03T01:37:07.959Z,10.76
2018-10-03T01:39:41.375Z,10.80
2018-10-03T01:42:12.402Z,10.82
2018-10-03T01:44:42.343Z,10.86
2018-10-03T01:47:13.413Z,10.88
2018-10-03T01:49:43.040Z,10.87
2018-10-03T01:52:12.819Z,10.88
2018-10-03T01:54:43.022Z,10.89
2018-10-03T01:57:12.793Z,10.90
2018-10-03T01:59:42.374Z,10.91
2018-10-03T02:02:12.226Z,10.90
2018-10-03T02:04:42.747Z,10.90
2018-10-03T02:07:12.559Z,10.93
2018-10-03T02:09:43.812Z,10.95
2018-10-03T02:12:14.886Z,10.90
2018-10-03T02:15:02.732Z,10.90
2018-10-03T02:17:32.512Z,10.90
2018-10-03T02:20:03.020Z,10.92
2018-10-03T02:22:33.417Z,10.92
2018-10-03T02:25:03.368Z,10.92
2018-10-03T02:30:19.213Z,10.94
2018-10-03T02:32:49.189Z,10.95
2018-10-03T02:35:22.941Z,11.00
2018-10-03T02:37:53.573Z,11.01
2018-10-03T02:40:23.727Z,11.00
2018-10-03T02:42:55.706Z,11.02
2018-10-03T02:45:25.784Z,11.00
2018-10-03T02:47:55.520Z,11.03
2018-10-03T02:50:25.920Z,11.05
2018-10-03T02:52:55.616Z,11.03
2018-10-03T02:55:25.261Z,11.06
2018-10-03T02:57:55.165Z,11.04
2018-10-03T03:00:24.764Z,11.02
2018-10-03T03:02:54.419Z,10.99
2018-10-03T03:05:25.317Z,10.98
2018-10-03T03:07:54.942Z,10.95
2018-10-03T03:10:24.528Z,10.90
2018-10-03T03:12:54.244Z,10.88
2018-10-03T03:15:24.314Z,10.88
2018-10-03T03:17:54.264Z,10.84
2018-10-03T03:20:24.222Z,10.83
2018-10-03T03:22:54.112Z,10.81
2018-10-03T03:25:24.209Z,10.78
2018-10-03T03:27:54.769Z,10.78
2018-10-03T03:30:25.256Z,10.69
2018-10-03T03:32:56.954Z,10.66
2018-10-03T03:35:29.879Z,10.60
2018-10-03T03:38:05.737Z,10.56
2018-10-03T03:40:36.562Z,10.51
2018-10-03T03:43:08.679Z,10.48
2018-10-03T03:45:38.404Z,10.46
2018-10-03T03:48:08.425Z,10.42
2018-10-03T03:50:38.322Z,10.41
2018-10-03T03:53:10.445Z,10.39
2018-10-03T03:55:40.068Z,10.41
2018-10-03T03:58:11.500Z,10.44
2018-10-03T04:00:41.348Z,10.47
2018-10-03T04:03:10.985Z,10.46
2018-10-03T04:05:40.589Z,10.47
2018-10-03T04:08:10.402Z,10.47
2018-10-03T04:10:40.061Z,10.47
2018-10-03T04:13:10.178Z,10.51
2018-10-03T04:15:39.944Z,10.55
2018-10-03T04:18:09.467Z,10.60
2018-10-03T04:20:44.201Z,10.59
2018-10-03T04:23:14.168Z,10.66
2018-10-03T04:25:43.814Z,10.68
2018-10-03T04:28:13.388Z,10.73
2018-10-03T04:30:47.504Z,10.78
2018-10-03T04:33:17.656Z,10.78
2018-10-03T04:35:49.080Z,10.78
2018-10-03T04:38:18.613Z,10.86
2018-10-03T04:40:49.652Z,10.85
2018-10-03T04:43:19.216Z,10.88
2018-10-03T04:45:49.293Z,10.84
2018-10-03T04:48:18.816Z,10.89
2018-10-03T04:50:48.281Z,10.88
2018-10-03T04:53:17.875Z,10.92
2018-10-03T04:55:47.702Z,10.91
2018-10-03T04:58:18.189Z,10.92
2018-10-03T05:00:47.956Z,10.93
2018-10-03T05:03:17.536Z,10.94
2018-10-03T05:05:47.527Z,10.98
2018-10-03T05:08:17.281Z,10.94
2018-10-03T05:10:56.349Z,10.89
2018-10-03T05:13:25.896Z,10.88
2018-10-03T05:15:55.709Z,10.88
2018-10-03T05:18:25.317Z,10.85
2018-10-03T05:21:04.230Z,10.84
2018-10-03T05:23:34.138Z,10.82
2018-10-03T05:26:03.660Z,10.82
2018-10-03T05:28:33.271Z,10.84
2018-10-03T05:31:02.868Z,10.86
2018-10-03T05:33:33.136Z,10.81
2018-10-03T05:36:05.162Z,10.80
2018-10-03T05:38:34.838Z,10.81
2018-10-03T05:41:04.365Z,10.85
2018-10-03T05:43:34.083Z,10.83
2018-10-03T05:46:03.627Z,10.86
2018-10-03T05:48:33.231Z,10.85
2018-10-03T05:51:03.383Z,10.87
2018-10-03T05:53:33.140Z,10.86
2018-10-03T05:56:02.832Z,10.90
2018-10-03T05:58:32.880Z,10.91
2018-10-03T06:01:14.476Z,10.91
2018-10-03T06:03:57.317Z,10.97
2018-10-03T06:06:27.333Z,10.96
2018-10-03T06:08:57.398Z,11.02
2018-10-03T06:11:26.950Z,11.04
2018-10-03T06:13:57.509Z,11.09
2018-10-03T06:16:27.654Z,11.10
2018-10-03T06:18:57.700Z,11.12
2018-10-03T06:21:27.445Z,11.15
2018-10-03T06:23:57.106Z,11.16
2018-10-03T06:26:26.911Z,11.23
2018-10-03T06:28:56.867Z,11.25
2018-10-03T06:31:26.472Z,11.23
2018-10-03T06:33:58.956Z,11.26
2018-10-03T06:36:28.532Z,11.26
2018-10-03T06:38:58.165Z,11.30
2018-10-03T06:41:28.989Z,11.36
2018-10-03T06:43:58.425Z,11.40
2018-10-03T06:46:27.980Z,11.42
2018-10-03T06:48:57.804Z,11.41
2018-10-03T06:51:27.261Z,11.40
2018-10-03T06:53:56.937Z,11.38
2018-10-03T06:56:26.769Z,11.37
2018-10-03T06:58:56.601Z,11.24
2018-10-03T07:01:26.262Z,11.15
2018-10-03T07:03:56.560Z,11.11
2018-10-03T07:06:26.257Z,11.14
2018-10-03T07:08:56.199Z,11.14
2018-10-03T07:11:25.836Z,11.17
2018-10-03T07:14:09.148Z,11.06
2018-10-03T07:16:38.794Z,10.99
2018-10-03T07:19:09.405Z,10.93
2018-10-03T07:21:39.222Z,10.81
2018-10-03T07:24:13.718Z,10.77
2018-10-03T07:26:43.299Z,10.76
2018-10-03T07:29:13.073Z,10.74
2018-10-03T07:31:43.011Z,10.73
2018-10-03T07:34:13.890Z,10.72
2018-10-03T07:36:44.122Z,10.73
2018-10-03T07:39:13.774Z,10.73
2018-10-03T07:41:45.626Z,10.74
2018-10-03T07:44:15.891Z,10.75
2018-10-03T07:46:45.389Z,10.72
2018-10-03T07:49:15.331Z,10.71
2018-10-03T07:51:44.935Z,10.70
2018-10-03T07:54:14.869Z,10.80
2018-10-03T07:56:44.453Z,10.87
2018-10-03T07:59:24.022Z,10.95
2018-10-03T08:01:55.420Z,11.01
2018-10-03T08:04:27.553Z,11.07
2018-10-03T08:06:57.703Z,11.17
2018-10-03T08:09:27.373Z,11.32
2018-10-03T08:11:57.834Z,11.45
2018-10-03T08:14:27.761Z,11.55
2018-10-03T08:16:57.420Z,11.74
2018-10-03T08:19:27.069Z,11.87
2018-10-03T08:21:56.965Z,12.03
2018-10-03T08:24:26.657Z,12.10
2018-10-03T08:26:56.248Z,12.15
2018-10-03T08:29:26.156Z,12.17
2018-10-03T08:31:56.492Z,12.23
2018-10-03T08:34:26.304Z,12.18
2018-10-03T08:36:56.997Z,12.15
2018-10-03T08:39:26.660Z,12.16
2018-10-03T08:41:56.581Z,12.25
2018-10-03T08:44:26.176Z,12.38
2018-10-03T08:46:55.856Z,12.52
2018-10-03T08:49:25.548Z,12.63
2018-10-03T08:51:55.650Z,12.80
2018-10-03T08:54:25.526Z,12.89
2018-10-03T08:56:55.636Z,12.99
2018-10-03T08:59:25.170Z,13.02
2018-10-03T09:01:54.843Z,13.15
2018-10-03T09:04:24.962Z,13.17
2018-10-03T09:06:54.561Z,13.33
2018-10-03T09:09:25.493Z,13.45
2018-10-03T09:11:55.089Z,13.58
2018-10-03T09:14:24.732Z,13.67
2018-10-03T09:16:55.569Z,13.90
2018-10-03T09:19:29.649Z,14.18
2018-10-03T09:21:59.333Z,14.24
2018-10-03T09:24:29.545Z,14.46
2018-10-03T09:26:59.296Z,14.81
2018-10-03T09:29:28.880Z,15.00
2018-10-03T09:31:58.507Z,15.29
2018-10-03T09:34:29.211Z,15.36
2018-10-03T09:36:59.098Z,15.31
2018-10-03T09:39:28.808Z,15.29
2018-10-03T09:42:00.332Z,15.44
2018-10-03T09:44:30.224Z,15.47
2018-10-03T09:47:00.038Z,15.40
2018-10-03T09:49:29.711Z,15.44
2018-10-03T09:52:00.390Z,15.35
2018-10-03T09:54:44.624Z,15.53
2018-10-03T09:57:22.608Z,15.73
2018-10-03T09:59:55.635Z,16.03
2018-10-03T10:02:28.103Z,15.75
2018-10-03T10:05:19.646Z,15.87
2018-10-03T10:12:03.584Z,15.99
2018-10-03T10:14:34.595Z,15.76
2018-10-03T10:17:04.421Z,15.85
2018-10-03T10:19:46.514Z,15.95
2018-10-03T10:22:17.795Z,15.78
2018-10-03T10:24:47.371Z,15.98
2018-10-03T10:27:17.362Z,16.00
2018-10-03T10:29:46.985Z,16.00
2018-10-03T10:32:16.596Z,15.89
2018-10-03T10:34:46.298Z,15.56
2018-10-03T10:37:16.030Z,15.63
2018-10-03T10:39:52.683Z,15.86
2018-10-03T10:42:23.934Z,15.61
2018-10-03T10:45:15.901Z,15.83
2018-10-03T10:54:00.158Z,16.10
2018-10-03T10:56:35.086Z,16.27
2018-10-03T10:59:05.584Z,16.65
2018-10-03T11:01:39.356Z,16.64
2018-10-03T11:07:10.826Z,16.46
2018-10-03T11:09:45.335Z,16.58
2018-10-03T11:15:33.098Z,16.36
2018-10-03T11:18:08.684Z,16.53
2018-10-03T11:20:38.866Z,16.59
2018-10-03T11:23:09.279Z,16.70
2018-10-03T11:25:39.287Z,16.55
2018-10-03T11:28:09.659Z,16.49
2018-10-03T11:30:40.440Z,16.42
2018-10-03T11:33:14.935Z,16.40
2018-10-03T11:35:44.594Z,16.24
2018-10-03T11:38:14.629Z,16.29
2018-10-03T11:40:44.624Z,16.16
2018-10-03T11:43:53.425Z,15.30
2018-10-03T11:46:23.323Z,16.22
2018-10-03T11:48:53.120Z,16.31
2018-10-03T11:51:23.229Z,16.49
2018-10-03T11:56:22.828Z,16.64
2018-10-03T11:58:58.456Z,17.05
2018-10-03T12:01:28.484Z,17.15
2018-10-03T12:03:58.491Z,17.10
2018-10-03T12:06:28.502Z,17.11
2018-10-03T12:08:58.581Z,16.96
2018-10-03T12:11:28.863Z,16.81
2018-10-03T12:13:58.928Z,16.59
2018-10-03T12:16:28.772Z,16.30
2018-10-03T12:18:58.494Z,16.22
2018-10-03T12:21:33.011Z,15.51
2018-10-03T12:24:03.290Z,16.15
2018-10-03T12:26:33.416Z,16.20
2018-10-03T12:30:01.516Z,16.20
2018-10-03T12:32:34.045Z,16.24
2018-10-03T12:35:04.312Z,16.43
2018-10-03T12:37:38.613Z,16.73
2018-10-03T12:40:08.500Z,16.91
2018-10-03T12:42:38.591Z,16.84
2018-10-03T12:45:09.507Z,16.58
2018-10-03T12:47:40.175Z,16.19
2018-10-03T12:50:41.120Z,16.07
2018-10-03T12:53:11.116Z,16.05
2018-10-03T12:55:41.922Z,16.00
2018-10-03T12:58:15.245Z,15.97
2018-10-03T13:00:45.165Z,15.78
2018-10-03T13:03:17.888Z,15.78
2018-10-03T13:05:47.801Z,15.67
2018-10-03T13:11:19.326Z,15.70
2018-10-03T13:13:49.265Z,15.82
2018-10-03T13:16:20.686Z,15.85
2018-10-03T13:18:50.468Z,15.91
2018-10-03T13:21:20.084Z,15.75
2018-10-03T13:23:49.926Z,15.59
2018-10-03T13:26:23.516Z,15.52
2018-10-03T13:28:53.487Z,15.51
2018-10-03T13:31:23.193Z,15.59
2018-10-03T13:33:53.027Z,15.46
2018-10-03T13:36:23.728Z,15.34
2018-10-03T13:38:53.462Z,15.35
2018-10-03T13:41:23.408Z,15.36
2018-10-03T13:43:53.130Z,15.36
2018-10-03T13:46:22.762Z,15.56
2018-10-03T13:48:52.923Z,15.69
2018-10-03T13:51:23.105Z,15.81
2018-10-03T13:53:52.880Z,15.86
2018-10-03T13:56:23.036Z,15.83
2018-10-03T13:58:53.114Z,15.78
2018-10-03T14:01:22.815Z,15.63
2018-10-03T14:03:56.591Z,15.69
2018-10-03T14:06:30.068Z,15.64
2018-10-03T14:09:00.061Z,15.69
2018-10-03T14:11:30.031Z,15.97
2018-10-03T14:14:01.608Z,16.01
2018-10-03T14:16:33.871Z,16.23
2018-10-03T14:19:03.610Z,16.28
2018-10-03T14:21:33.559Z,16.48
2018-10-03T14:24:03.572Z,16.48
2018-10-03T14:26:51.500Z,17.10
2018-10-03T14:29:21.293Z,17.58
2018-10-03T14:31:50.976Z,17.96
2018-10-03T14:37:14.820Z,18.45
2018-10-03T14:39:50.246Z,19.07
2018-10-03T14:42:21.533Z,19.89
2018-10-03T14:44:51.494Z,20.54
2018-10-03T14:47:23.472Z,21.04
2018-10-03T14:50:01.252Z,20.54
2018-10-03T14:52:31.536Z,20.11
2018-10-03T14:55:01.808Z,20.02
2018-10-03T14:57:57.212Z,20.18
2018-10-03T15:06:26.452Z,21.19
2018-10-03T15:08:57.011Z,20.75
2018-10-03T15:11:28.882Z,20.64
2018-10-03T15:13:58.824Z,20.64
2018-10-03T15:16:28.760Z,20.54
2018-10-03T15:19:00.071Z,19.69
2018-10-03T15:21:30.095Z,19.42
2018-10-03T15:24:01.049Z,18.65
2018-10-03T15:26:35.173Z,18.08
2018-10-03T15:29:11.077Z,17.70
2018-10-03T15:31:41.957Z,17.48
2018-10-03T15:34:23.772Z,17.07
2018-10-03T15:36:53.806Z,16.71
2018-10-03T15:39:23.762Z,16.52
2018-10-03T15:42:15.271Z,16.46
2018-10-03T15:44:45.108Z,16.41
2018-10-03T15:47:35.374Z,16.18
2018-10-03T15:50:05.885Z,16.03
2018-10-03T15:52:37.332Z,16.04
2018-10-03T15:55:14.031Z,15.96
2018-10-03T15:57:45.041Z,15.96
2018-10-03T16:00:31.947Z,15.84
2018-10-03T16:06:21.804Z,15.56
2018-10-03T16:08:51.843Z,15.55
2018-10-03T16:11:25.582Z,15.40
2018-10-03T16:14:03.279Z,15.34
2018-10-03T16:17:50.658Z,15.29
2018-10-03T16:20:22.498Z,15.16
2018-10-03T16:23:00.587Z,14.92
2018-10-03T16:25:36.746Z,14.70
2018-10-03T16:28:24.336Z,14.69
2018-10-03T16:31:02.415Z,14.34
2018-10-03T16:33:33.394Z,14.26
2018-10-03T16:36:08.810Z,14.07
2018-10-03T16:38:43.412Z,13.93
2018-10-03T16:41:13.539Z,13.95
2018-10-03T16:43:47.867Z,13.85
2018-10-03T16:46:22.035Z,13.74
2018-10-03T16:48:52.697Z,13.88
2018-10-03T16:51:31.190Z,13.72
2018-10-03T16:54:02.754Z,13.45
2018-10-03T16:56:34.370Z,13.34
2018-10-03T16:59:05.283Z,13.26
2018-10-03T17:01:37.830Z,13.08
2018-10-03T17:04:10.441Z,12.93
2018-10-03T17:06:41.018Z,12.74
2018-10-03T17:09:13.441Z,12.62
2018-10-03T17:11:44.856Z,12.50
2018-10-03T17:14:39.773Z,12.41
2018-10-03T17:17:10.852Z,12.28
2018-10-03T17:19:41.225Z,12.24
2018-10-03T17:22:13.348Z,12.28
2018-10-03T17:24:45.966Z,12.29
2018-10-03T17:27:18.273Z,12.14
2018-10-03T17:32:51.092Z,12.03
2018-10-03T17:35:21.853Z,12.01
2018-10-03T17:37:51.657Z,12.06
2018-10-03T17:40:45.790Z,12.04
2018-10-03T17:46:29.790Z,11.94
2018-10-03T17:49:00.713Z,11.91
2018-10-03T17:51:30.607Z,11.88
2018-10-03T17:54:00.776Z,11.86
2018-10-03T17:56:31.011Z,11.77
2018-10-03T17:59:02.015Z,11.71
2018-10-03T18:01:38.206Z,11.69
2018-10-03T18:04:08.203Z,11.65
2018-10-03T18:06:40.005Z,11.63
2018-10-03T18:09:12.078Z,11.62
2018-10-03T18:11:43.348Z,11.58
2018-10-03T18:14:14.295Z,11.50
2018-10-03T18:19:37.631Z,11.50
2018-10-03T18:22:08.807Z,11.44
2018-10-03T18:24:44.133Z,11.37
2018-10-03T18:27:15.456Z,11.36
2018-10-03T18:29:53.166Z,11.28
2018-10-03T18:38:29.009Z,11.22
2018-10-03T18:43:48.236Z,11.09
2018-10-03T18:46:32.295Z,11.04
2018-10-03T18:49:04.744Z,10.99
2018-10-03T18:51:43.584Z,10.93
2018-10-03T18:54:50.833Z,10.81
2018-10-03T18:57:33.707Z,10.76
2018-10-03T19:00:10.485Z,10.66
2018-10-03T19:02:40.794Z,10.66
2018-10-03T19:05:12.527Z,10.61
2018-10-03T19:08:03.648Z,10.55
2018-10-03T19:10:33.945Z,10.44
2018-10-03T19:13:17.127Z,10.40
2018-10-03T19:15:53.629Z,10.36
2018-10-03T19:18:36.587Z,10.34
2018-10-03T19:31:36.938Z,10.13
2018-10-03T19:34:17.363Z,10.08
2018-10-03T19:37:07.235Z,10.08
2018-10-03T19:39:39.424Z,10.02
2018-10-03T19:42:10.297Z,9.96
2018-10-03T19:44:40.869Z,9.93
2018-10-03T19:47:17.848Z,9.98
2018-10-03T19:50:13.068Z,9.89
2018-10-03T19:52:42.837Z,9.91
2018-10-03T19:55:15.821Z,9.88
2018-10-03T19:57:46.038Z,9.76
2018-10-03T20:00:16.767Z,9.84
2018-10-03T20:02:49.999Z,9.82
2018-10-03T20:12:24.799Z,9.65
2018-10-03T20:14:54.692Z,9.75
2018-10-03T20:17:29.006Z,9.77
2018-10-03T20:19:59.771Z,9.75
2018-10-03T20:22:30.104Z,9.67
2018-10-03T20:25:00.863Z,9.57
2018-10-03T20:27:32.019Z,9.58
2018-10-03T20:30:01.870Z,9.51
2018-10-03T20:32:33.110Z,9.48
2018-10-03T20:35:03.382Z,9.48
2018-10-03T20:37:44.297Z,9.50
2018-10-03T20:40:14.344Z,9.41
2018-10-03T20:42:50.366Z,9.36
2018-10-03T20:45:20.209Z,9.30
2018-10-03T20:47:49.774Z,9.29
2018-10-03T20:50:19.498Z,9.28
2018-10-03T20:52:50.766Z,9.29
2018-10-03T20:55:20.422Z,9.29
2018-10-03T20:57:50.389Z,9.25
2018-10-03T21:00:20.058Z,9.18
2018-10-03T21:02:49.691Z,9.17
2018-10-03T21:05:19.222Z,9.16
2018-10-03T21:07:50.592Z,9.17
2018-10-03T21:10:20.370Z,9.19
2018-10-03T21:12:50.003Z,9.17
2018-10-03T21:15:19.624Z,9.15
2018-10-03T21:17:49.929Z,9.14
2018-10-03T21:20:19.532Z,9.14
2018-10-03T21:22:49.123Z,9.27
2018-10-03T21:25:18.644Z,9.33
2018-10-03T21:27:48.253Z,9.36
2018-10-03T21:30:17.724Z,9.32
2018-10-03T21:32:50.754Z,9.32
2018-10-03T21:35:20.526Z,9.28
2018-10-03T21:37:50.154Z,9.32
2018-10-03T21:40:19.902Z,9.27
2018-10-03T21:42:49.394Z,9.28
2018-10-03T21:45:19.622Z,9.24
2018-10-03T21:47:50.220Z,9.28
2018-10-03T21:50:19.805Z,9.26
2018-10-03T21:52:49.200Z,9.22
2018-10-03T21:55:18.655Z,9.26
2018-10-03T21:57:49.449Z,9.26
2018-10-03T22:00:19.764Z,9.28
2018-10-03T22:02:50.172Z,9.18
2018-10-03T22:05:19.806Z,9.11
2018-10-03T22:07:55.608Z,9.13
2018-10-03T22:10:25.096Z,9.03
2018-10-03T22:12:54.845Z,8.96
2018-10-03T22:15:24.387Z,8.97
2018-10-03T22:17:54.445Z,8.91
2018-10-03T22:20:23.932Z,8.89
2018-10-03T22:22:53.563Z,8.85
2018-10-03T22:25:23.289Z,8.84
2018-10-03T22:27:52.939Z,8.81
2018-10-03T22:30:22.458Z,8.77
2018-10-03T22:32:52.454Z,8.73
2018-10-03T22:35:22.003Z,8.80
2018-10-03T22:37:51.910Z,8.70
2018-10-03T22:40:21.303Z,8.76
2018-10-03T22:42:51.124Z,8.72
2018-10-03T22:45:20.654Z,8.69
2018-10-03T22:47:50.100Z,8.66
2018-10-03T22:50:19.602Z,8.58
2018-10-03T22:52:49.026Z,8.53
2018-10-03T22:55:18.550Z,8.50
2018-10-03T22:57:51.760Z,8.47
2018-10-03T23:00:21.228Z,8.45
2018-10-03T23:02:50.656Z,8.45
2018-10-03T23:05:20.060Z,8.39
2018-10-03T23:07:49.459Z,8.36
2018-10-03T23:10:18.935Z,8.39
2018-10-03T23:12:48.773Z,8.43
2018-10-03T23:15:18.389Z,8.42
2018-10-03T23:17:48.236Z,8.36
2018-10-03T23:20:17.701Z,8.29
2018-10-03T23:22:50.278Z,8.25
2018-10-03T23:25:20.070Z,8.22
2018-10-03T23:27:49.645Z,8.18
2018-10-03T23:30:19.491Z,8.13
2018-10-03T23:32:48.922Z,8.13
2018-10-03T23:35:18.376Z,8.11
2018-10-03T23:37:52.655Z,8.08
2018-10-03T23:40:22.244Z,8.03
2018-10-03T23:42:51.667Z,7.97
2018-10-03T23:45:21.078Z,7.94
2018-10-03T23:47:51.865Z,7.89
2018-10-03T23:50:21.369Z,7.87
2018-10-03T23:52:50.997Z,7.90
2018-10-03T23:55:20.415Z,7.88
2018-10-03T23:57:49.816Z,7.83
